createdAt,value
2022-11-15T00:00:04.840Z,18.52
2022-11-15T00:05:06.558Z,21.05
2022-11-15T00:10:08.552Z,15.35
2022-11-15T00:15:10.098Z,17.20
2022-11-15T00:20:12.518Z,12.77
2022-11-15T00:25:14.124Z,12.05
2022-11-15T00:30:15.819Z,13.93
2022-11-15T00:35:17.515Z,8.57
2022-11-15T00:40:18.969Z,13.63
2022-11-15T00:45:20.533Z,16.60
2022-11-15T00:50:22.007Z,14.27
2022-11-15T00:55:23.461Z,9.63
2022-11-15T01:00:25.067Z,12.90
2022-11-15T01:05:26.574Z,9.60
2022-11-15T01:10:28.125Z,13.30
2022-11-15T01:15:29.581Z,11.13
2022-11-15T01:20:31.055Z,10.75
2022-11-15T01:25:32.527Z,13.88
2022-11-15T01:30:34.065Z,10.15
2022-11-15T01:35:40.186Z,9.82
2022-11-15T01:40:42.230Z,11.65
2022-11-15T01:45:54.518Z,7.20
2022-11-15T01:50:56.254Z,10.43
2022-11-15T01:55:58.441Z,9.75
2022-11-15T02:01:00.029Z,11.65
2022-11-15T02:06:02.982Z,7.88
2022-11-15T02:11:08.693Z,8.85
2022-11-15T02:16:40.335Z,8.23
2022-11-15T02:21:59.394Z,7.18
2022-11-15T02:27:38.320Z,7.47
2022-11-15T02:32:58.029Z,7.97
2022-11-15T02:38:17.547Z,7.13
2022-11-15T02:43:44.173Z,9.25
2022-11-15T02:48:46.528Z,7.53
2022-11-15T02:53:48.054Z,10.00
2022-11-15T02:58:55.460Z,9.10
2022-11-15T03:04:10.811Z,5.78
2022-11-15T03:09:31.006Z,8.88
2022-11-15T03:14:40.263Z,9.27
2022-11-15T03:19:46.230Z,6.00
2022-11-15T03:24:59.839Z,5.50
2022-11-15T03:30:05.270Z,7.72
2022-11-15T03:35:13.610Z,6.65
2022-11-15T03:40:16.774Z,8.50
2022-11-15T03:45:23.430Z,10.50
2022-11-15T03:50:26.060Z,7.07
2022-11-15T03:55:27.847Z,7.18
2022-11-15T04:00:29.851Z,9.45
2022-11-15T04:05:31.335Z,9.57
2022-11-15T04:10:32.845Z,10.30
2022-11-15T04:15:35.027Z,7.60
2022-11-15T04:20:55.274Z,9.32
2022-11-15T04:25:59.291Z,12.88
2022-11-15T04:31:00.899Z,14.23
2022-11-15T04:36:21.217Z,10.52
2022-11-15T04:41:22.709Z,9.15
2022-11-15T04:46:25.043Z,11.80
2022-11-15T04:51:26.665Z,8.63
2022-11-15T04:56:28.131Z,14.32
2022-11-15T05:01:30.824Z,9.35
2022-11-15T05:06:32.814Z,10.23
2022-11-15T05:11:34.306Z,6.85
2022-11-15T05:16:36.328Z,10.93
2022-11-15T05:21:38.186Z,7.95
2022-11-15T05:26:39.748Z,14.80
2022-11-15T05:31:42.611Z,10.13
2022-11-15T05:36:45.679Z,15.38
2022-11-15T05:41:53.865Z,14.77
2022-11-15T05:46:57.829Z,11.45
2022-11-15T05:52:00.125Z,9.52
2022-11-15T05:57:02.028Z,9.75
2022-11-15T06:02:03.609Z,13.30
2022-11-15T06:07:05.191Z,9.15
2022-11-15T06:12:06.981Z,12.80
2022-11-15T06:17:11.303Z,7.50
2022-11-15T06:22:13.096Z,13.70
2022-11-15T06:27:14.656Z,12.85
2022-11-15T06:32:16.129Z,12.75
2022-11-15T06:37:17.604Z,9.30
2022-11-15T06:42:19.102Z,9.27
2022-11-15T06:47:20.628Z,7.68
2022-11-15T06:52:22.737Z,5.93
2022-11-15T06:57:24.181Z,11.05
2022-11-15T07:02:25.668Z,11.60
2022-11-15T07:07:27.370Z,14.45
2022-11-15T07:12:28.927Z,9.52
2022-11-15T07:17:30.458Z,10.77
2022-11-15T07:22:31.977Z,8.32
2022-11-15T07:27:33.585Z,10.10
2022-11-15T07:32:35.653Z,5.68
2022-11-15T07:37:37.099Z,9.10
2022-11-15T07:42:53.878Z,5.95
2022-11-15T07:47:56.908Z,4.70
2022-11-15T07:53:00.058Z,5.75
2022-11-15T07:58:03.893Z,6.78
2022-11-15T08:03:10.040Z,9.55
2022-11-15T08:08:12.134Z,4.97
2022-11-15T08:13:14.913Z,5.30
2022-11-15T08:18:17.619Z,7.53
2022-11-15T08:23:19.178Z,7.18
2022-11-15T08:28:20.688Z,6.95
2022-11-15T08:33:22.259Z,6.95
2022-11-15T08:38:23.914Z,4.32
2022-11-15T08:43:25.400Z,4.70
2022-11-15T08:48:27.115Z,4.57
2022-11-15T08:53:28.630Z,6.28
2022-11-15T08:58:30.684Z,6.68
2022-11-15T09:03:32.723Z,6.22
2022-11-15T09:08:47.430Z,5.63
2022-11-15T09:13:49.260Z,5.53
2022-11-15T09:18:50.924Z,6.07
2022-11-15T09:23:53.419Z,8.35
2022-11-15T09:28:54.978Z,4.75
2022-11-15T09:33:56.811Z,6.70
2022-11-15T09:39:01.455Z,7.57
2022-11-15T09:44:33.629Z,4.07
2022-11-15T09:49:35.358Z,5.13
2022-11-15T09:54:53.373Z,3.75
2022-11-15T10:05:48.450Z,4.75
2022-11-15T10:11:22.629Z,8.13
2022-11-15T10:16:41.002Z,5.57
2022-11-15T10:22:13.237Z,4.20
2022-11-15T10:27:19.894Z,4.22
2022-11-15T10:32:22.287Z,3.80
2022-11-15T10:37:31.783Z,5.30
2022-11-15T10:42:33.254Z,7.50
2022-11-15T10:47:39.262Z,6.95
2022-11-15T10:52:48.151Z,5.68
2022-11-15T10:57:55.119Z,10.80
2022-11-15T11:02:56.547Z,5.72
2022-11-15T11:08:23.838Z,5.32
2022-11-15T11:13:39.365Z,5.63
2022-11-15T11:18:43.604Z,7.15
2022-11-15T11:23:55.460Z,6.43
2022-11-15T11:29:20.233Z,14.13
2022-11-15T11:34:27.610Z,9.68
2022-11-15T11:40:14.205Z,6.43
2022-11-15T11:45:33.192Z,11.48
2022-11-15T11:50:38.976Z,6.78
2022-11-15T11:55:48.814Z,5.53
2022-11-15T12:01:02.875Z,6.00
2022-11-15T12:06:33.158Z,5.55
2022-11-15T12:11:43.895Z,5.88
2022-11-15T12:16:45.397Z,10.15
2022-11-15T12:22:23.931Z,6.07
2022-11-15T12:27:31.172Z,10.30
2022-11-15T12:32:38.692Z,8.10
2022-11-15T12:37:41.486Z,7.65
2022-11-15T12:42:58.668Z,5.25
2022-11-15T12:48:20.108Z,7.57
2022-11-15T12:53:28.514Z,4.95
2022-11-15T12:58:49.470Z,4.97
2022-11-15T13:04:09.588Z,5.93
2022-11-15T13:09:29.353Z,5.07
2022-11-15T13:14:44.439Z,4.00
2022-11-15T13:20:16.055Z,5.85
2022-11-15T13:25:51.398Z,4.80
2022-11-15T13:30:59.689Z,6.28
2022-11-15T13:36:23.117Z,4.38
2022-11-15T13:41:30.649Z,5.68
2022-11-15T13:46:34.057Z,5.68
2022-11-15T13:51:35.531Z,3.92
2022-11-15T13:56:37.811Z,7.78
2022-11-15T14:01:43.386Z,5.85
2022-11-15T14:06:51.866Z,6.72
2022-11-15T14:11:54.980Z,4.13
2022-11-15T14:17:01.757Z,7.20
2022-11-15T14:22:26.526Z,3.38
2022-11-15T14:27:30.002Z,5.45
2022-11-15T14:32:44.718Z,5.38
2022-11-15T14:37:47.152Z,6.93
2022-11-15T14:42:50.345Z,5.07
2022-11-15T14:47:51.800Z,9.65
2022-11-15T14:52:53.279Z,8.52
2022-11-15T14:57:55.751Z,5.07
2022-11-15T15:02:57.653Z,3.10
2022-11-15T15:07:59.937Z,3.65
2022-11-15T15:13:01.904Z,7.15
2022-11-15T15:18:06.269Z,4.97
2022-11-15T15:23:19.029Z,4.65
2022-11-15T15:28:20.567Z,7.10
2022-11-15T15:33:22.073Z,5.63
2022-11-15T15:38:23.797Z,6.10
2022-11-15T15:43:25.258Z,5.35
2022-11-15T15:48:26.788Z,4.75
2022-11-15T15:53:28.282Z,3.42
2022-11-15T15:58:30.149Z,6.22
2022-11-15T16:03:32.210Z,5.85
2022-11-15T16:08:53.451Z,3.10
2022-11-15T16:13:55.167Z,4.32
2022-11-15T16:18:56.834Z,4.07
2022-11-15T16:23:58.361Z,5.88
2022-11-15T16:28:59.840Z,9.48
2022-11-15T16:34:01.444Z,4.57
2022-11-15T16:39:07.525Z,7.90
2022-11-15T16:44:09.056Z,7.47
2022-11-15T16:49:17.341Z,8.18
2022-11-15T16:54:18.957Z,5.97
2022-11-15T16:59:20.990Z,8.45
2022-11-15T17:04:22.822Z,5.22
2022-11-15T17:09:24.801Z,5.13
2022-11-15T17:14:26.362Z,4.07
2022-11-15T17:19:27.846Z,6.45
2022-11-15T17:24:29.355Z,5.80
2022-11-15T17:29:30.869Z,4.53
2022-11-15T17:34:32.426Z,4.80
2022-11-15T17:39:33.918Z,5.30
2022-11-15T17:44:35.417Z,9.20
2022-11-15T17:49:39.474Z,39.72
2022-11-15T17:54:40.995Z,34.03
2022-11-15T17:59:42.497Z,78.80
2022-11-15T18:04:43.949Z,80.65
2022-11-15T18:09:45.515Z,82.82
2022-11-15T18:14:47.004Z,15.05
2022-11-15T18:19:48.662Z,10.40
2022-11-15T18:24:50.343Z,7.57
2022-11-15T18:29:51.909Z,24.42
2022-11-15T18:34:53.656Z,25.75
2022-11-15T18:39:55.216Z,10.95
2022-11-15T18:44:57.077Z,25.05
2022-11-15T18:49:59.675Z,16.50
2022-11-15T18:55:01.130Z,20.25
2022-11-15T19:00:03.067Z,17.63
2022-11-15T19:05:05.020Z,14.90
2022-11-15T19:10:07.135Z,12.52
2022-11-15T19:15:10.403Z,25.08
2022-11-15T19:20:12.130Z,24.88
2022-11-15T19:25:13.627Z,13.32
2022-11-15T19:30:15.298Z,14.18
2022-11-15T19:35:16.959Z,17.67
2022-11-15T19:40:18.500Z,24.90
2022-11-15T19:45:20.521Z,20.10
2022-11-15T19:50:22.033Z,17.33
2022-11-15T19:55:23.579Z,23.20
2022-11-15T20:00:25.112Z,20.00
2022-11-15T20:05:26.564Z,17.38
2022-11-15T20:10:28.034Z,21.23
2022-11-15T20:15:29.528Z,17.13
2022-11-15T20:20:31.020Z,29.85
2022-11-15T20:25:32.531Z,19.52
2022-11-15T20:30:34.171Z,18.40
2022-11-15T20:35:35.601Z,13.20
2022-11-15T20:40:39.139Z,14.45
2022-11-15T20:45:44.034Z,23.05
2022-11-15T20:50:46.805Z,33.25
2022-11-15T20:55:49.790Z,32.35
2022-11-15T21:00:55.537Z,27.23
2022-11-15T21:05:57.313Z,21.30
2022-11-15T21:11:17.404Z,17.75
2022-11-15T21:16:18.876Z,21.13
2022-11-15T21:21:20.466Z,27.42
2022-11-15T21:26:22.271Z,47.20
2022-11-15T21:31:23.752Z,40.03
2022-11-15T21:36:25.243Z,23.77
2022-11-15T21:41:26.876Z,16.70
2022-11-15T21:46:29.788Z,15.93
2022-11-15T21:51:31.652Z,17.63
2022-11-15T21:56:33.735Z,19.92
2022-11-15T22:01:53.953Z,23.52
2022-11-15T22:06:55.514Z,29.80
2022-11-15T22:11:57.024Z,23.02
2022-11-15T22:16:58.512Z,19.98
2022-11-15T22:22:00.032Z,13.52
2022-11-15T22:27:01.708Z,14.82
2022-11-15T22:32:03.388Z,12.23
2022-11-15T22:37:20.115Z,14.75
2022-11-15T22:42:24.106Z,22.98
2022-11-15T22:47:26.040Z,18.52
2022-11-15T22:52:27.609Z,18.35
2022-11-15T22:57:29.095Z,16.58
2022-11-15T23:02:30.551Z,20.30
2022-11-15T23:07:34.070Z,17.25
2022-11-15T23:12:54.377Z,20.67
2022-11-15T23:17:56.447Z,18.27
2022-11-15T23:22:59.085Z,22.20
2022-11-15T23:28:02.953Z,15.27
2022-11-15T23:33:23.261Z,11.82
2022-11-15T23:38:24.809Z,12.35
2022-11-15T23:43:26.358Z,10.07
2022-11-15T23:48:28.314Z,10.13
2022-11-15T23:53:29.833Z,9.35
2022-11-15T23:58:32.305Z,10.15
